Terminal Aerodrome Forecast
Issued by NWS Louisville, KY

Home | Current Version | Previous Version | Text Only | Print | Product List | Glossary On
Versions: 1 2 3 4 5 6 7 8 9 10 11 12 13 14
000
FTUS43 KLMK 262320
TAFBWG
TAF
KBWG 262320Z 2700/2724 VRB03KT P6SM BKN250
     FM270900 00000KT 4SM BR SCT250
     FM271300 16005KT P6SM SCT040 BKN250
     FM271800 17008KT P6SM SCT040 SCT250=

USA.gov is the U.S. government's official web portal to all federal, state and local government web resources and services.